Terminal Aerodrome Forecast
Issued by NWS

Home | Current Version | Previous Version | Text Only | Print | Product List | Glossary On
Versions: 1 2 3 4 5 6 7 8 9 10 11 12 13 14 15 16
000
FTUS44 KCRP 290600 AAA
TAFALI
TAF AMD
KALI 290616Z 2906/3006 15005KT 2SM BR SCT005
      TEMPO 2906/2908 1SM BR BKN005
     FM290800 16003KT 1/2SM FG VV002
     FM291500 17014KT 4SM BR BKN012
     FM291700 16010KT P6SM SCT020=

USA.gov is the U.S. government's official web portal to all federal, state and local government web resources and services.